sensor_id;sensor_type;location;lat;lon;timestamp;temperature;humidity
8780;DHT22;62328;51.19929245;4.42130175;2023-05-07T00:00:57;16.70;99.90
8780;DHT22;62328;51.19929245;4.42130175;2023-05-07T00:03:28;16.70;99.90
8780;DHT22;62328;51.19929245;4.42130175;2023-05-07T00:08:40;16.70;99.90
8780;DHT22;62328;51.19929245;4.42130175;2023-05-07T00:11:07;16.70;99.90
8780;DHT22;62328;51.19929245;4.42130175;2023-05-07T00:13:34;16.70;99.90
8780;DHT22;62328;51.19929245;4.42130175;2023-05-07T00:16:01;16.70;99.90
8780;DHT22;62328;51.19929245;4.42130175;2023-05-07T00:18:30;16.70;99.90
8780;DHT22;62328;51.19929245;4.42130175;2023-05-07T00:20:57;16.70;99.90
8780;DHT22;62328;51.19929245;4.42130175;2023-05-07T00:23:24;16.70;99.90
8780;DHT22;62328;51.19929245;4.42130175;2023-05-07T00:25:51;16.60;99.90
8780;DHT22;62328;51.19929245;4.42130175;2023-05-07T00:28:18;16.70;99.90
8780;DHT22;62328;51.19929245;4.42130175;2023-05-07T00:30:45;16.60;99.90
8780;DHT22;62328;51.19929245;4.42130175;2023-05-07T00:33:12;16.60;99.90
8780;DHT22;62328;51.19929245;4.42130175;2023-05-07T00:35:41;16.60;99.90
8780;DHT22;62328;51.19929245;4.42130175;2023-05-07T00:38:09;16.60;99.90
8780;DHT22;62328;51.19929245;4.42130175;2023-05-07T00:40:35;16.60;99.90
8780;DHT22;62328;51.19929245;4.42130175;2023-05-07T00:43:02;16.60;99.90
8780;DHT22;62328;51.19929245;4.42130175;2023-05-07T00:45:29;16.60;99.90
8780;DHT22;62328;51.19929245;4.42130175;2023-05-07T00:47:59;16.60;99.90
8780;DHT22;62328;51.19929245;4.42130175;2023-05-07T00:50:26;16.60;99.90
8780;DHT22;62328;51.19929245;4.42130175;2023-05-07T00:52:55;16.60;99.90
8780;DHT22;62328;51.19929245;4.42130175;2023-05-07T00:55:23;16.60;99.90
8780;DHT22;62328;51.19929245;4.42130175;2023-05-07T00:57:50;16.60;99.90
8780;DHT22;62328;51.19929245;4.42130175;2023-05-07T01:00:18;16.60;99.90
8780;DHT22;62328;51.19929245;4.42130175;2023-05-07T01:02:45;16.60;99.90
8780;DHT22;62328;51.19929245;4.42130175;2023-05-07T01:05:15;16.60;99.90
8780;DHT22;62328;51.19929245;4.42130175;2023-05-07T01:07:43;16.60;99.90
8780;DHT22;62328;51.19929245;4.42130175;2023-05-07T01:10:12;16.60;99.90
8780;DHT22;62328;51.19929245;4.42130175;2023-05-07T01:12:40;16.60;99.90
8780;DHT22;62328;51.19929245;4.42130175;2023-05-07T01:15:08;16.60;99.90
8780;DHT22;62328;51.19929245;4.42130175;2023-05-07T01:17:36;16.50;99.90
8780;DHT22;62328;51.19929245;4.42130175;2023-05-07T01:20:05;16.50;99.90
8780;DHT22;62328;51.19929245;4.42130175;2023-05-07T01:22:34;16.50;99.90
8780;DHT22;62328;51.19929245;4.42130175;2023-05-07T01:25:03;16.50;99.90
8780;DHT22;62328;51.19929245;4.42130175;2023-05-07T01:27:31;16.50;99.90
8780;DHT22;62328;51.19929245;4.42130175;2023-05-07T01:30:00;16.50;99.90
8780;DHT22;62328;51.19929245;4.42130175;2023-05-07T01:32:30;16.50;99.90
8780;DHT22;62328;51.19929245;4.42130175;2023-05-07T01:35:00;16.50;99.90
8780;DHT22;62328;51.19929245;4.42130175;2023-05-07T01:37:28;16.50;99.90
8780;DHT22;62328;51.19929245;4.42130175;2023-05-07T01:39:57;16.50;99.90
8780;DHT22;62328;51.19929245;4.42130175;2023-05-07T01:42:24;16.50;99.90
8780;DHT22;62328;51.19929245;4.42130175;2023-05-07T01:44:51;16.50;99.90
8780;DHT22;62328;51.19929245;4.42130175;2023-05-07T01:47:19;16.40;99.90
8780;DHT22;62328;51.19929245;4.42130175;2023-05-07T01:49:47;16.40;99.90
8780;DHT22;62328;51.19929245;4.42130175;2023-05-07T01:52:14;16.30;99.90
8780;DHT22;62328;51.19929245;4.42130175;2023-05-07T01:54:41;16.30;99.90
8780;DHT22;62328;51.19929245;4.42130175;2023-05-07T01:57:09;16.20;99.90
8780;DHT22;62328;51.19929245;4.42130175;2023-05-07T01:59:36;16.20;99.90
8780;DHT22;62328;51.19929245;4.42130175;2023-05-07T02:02:03;16.20;99.90
8780;DHT22;62328;51.19929245;4.42130175;2023-05-07T02:04:30;16.20;99.90
8780;DHT22;62328;51.19929245;4.42130175;2023-05-07T02:06:57;16.10;99.90
8780;DHT22;62328;51.19929245;4.42130175;2023-05-07T02:09:25;16.10;99.90
8780;DHT22;62328;51.19929245;4.42130175;2023-05-07T02:11:52;16.10;99.90
8780;DHT22;62328;51.19929245;4.42130175;2023-05-07T02:14:20;16.10;99.90
8780;DHT22;62328;51.19929245;4.42130175;2023-05-07T02:16:47;16.10;99.90
8780;DHT22;62328;51.19929245;4.42130175;2023-05-07T02:19:14;16.10;99.90
8780;DHT22;62328;51.19929245;4.42130175;2023-05-07T02:21:41;16.10;99.90
8780;DHT22;62328;51.19929245;4.42130175;2023-05-07T02:24:08;16.00;99.90
8780;DHT22;62328;51.19929245;4.42130175;2023-05-07T02:26:35;16.10;99.90
8780;DHT22;62328;51.19929245;4.42130175;2023-05-07T02:29:02;16.10;99.90
8780;DHT22;62328;51.19929245;4.42130175;2023-05-07T02:31:31;16.10;99.90
8780;DHT22;62328;51.19929245;4.42130175;2023-05-07T02:33:59;16.10;99.90
8780;DHT22;62328;51.19929245;4.42130175;2023-05-07T02:36:26;16.10;99.90
8780;DHT22;62328;51.19929245;4.42130175;2023-05-07T02:38:53;16.10;99.90
8780;DHT22;62328;51.19929245;4.42130175;2023-05-07T02:41:20;16.20;99.90
8780;DHT22;62328;51.19929245;4.42130175;2023-05-07T02:43:47;16.20;99.90
8780;DHT22;62328;51.19929245;4.42130175;2023-05-07T02:46:14;16.20;99.90
8780;DHT22;62328;51.19929245;4.42130175;2023-05-07T02:48:42;16.20;99.90
8780;DHT22;62328;51.19929245;4.42130175;2023-05-07T02:51:09;16.20;99.90
8780;DHT22;62328;51.19929245;4.42130175;2023-05-07T02:53:36;16.20;99.90
8780;DHT22;62328;51.19929245;4.42130175;2023-05-07T02:56:04;16.30;99.90
8780;DHT22;62328;51.19929245;4.42130175;2023-05-07T02:58:31;16.20;99.90
8780;DHT22;62328;51.19929245;4.42130175;2023-05-07T03:00:58;16.30;99.90
8780;DHT22;62328;51.19929245;4.42130175;2023-05-07T03:03:25;16.30;99.90
8780;DHT22;62328;51.19929245;4.42130175;2023-05-07T03:05:54;16.30;99.90
8780;DHT22;62328;51.19929245;4.42130175;2023-05-07T03:08:21;16.30;99.90
8780;DHT22;62328;51.19929245;4.42130175;2023-05-07T03:10:48;16.30;99.90
8780;DHT22;62328;51.19929245;4.42130175;2023-05-07T03:13:15;16.30;99.90
8780;DHT22;62328;51.19929245;4.42130175;2023-05-07T03:15:42;16.30;99.90
8780;DHT22;62328;51.19929245;4.42130175;2023-05-07T03:18:09;16.20;99.90
8780;DHT22;62328;51.19929245;4.42130175;2023-05-07T03:20:36;16.20;99.90
8780;DHT22;62328;51.19929245;4.42130175;2023-05-07T03:23:04;16.20;99.90
8780;DHT22;62328;51.19929245;4.42130175;2023-05-07T03:25:32;16.20;99.90
8780;DHT22;62328;51.19929245;4.42130175;2023-05-07T03:27:59;16.30;99.90
8780;DHT22;62328;51.19929245;4.42130175;2023-05-07T03:30:26;16.30;99.90
8780;DHT22;62328;51.19929245;4.42130175;2023-05-07T03:32:53;16.30;99.90
8780;DHT22;62328;51.19929245;4.42130175;2023-05-07T03:35:20;16.30;99.90
8780;DHT22;62328;51.19929245;4.42130175;2023-05-07T03:37:47;16.20;99.90
8780;DHT22;62328;51.19929245;4.42130175;2023-05-07T03:40:15;16.30;99.90
8780;DHT22;62328;51.19929245;4.42130175;2023-05-07T03:42:42;16.20;99.90
8780;DHT22;62328;51.19929245;4.42130175;2023-05-07T03:45:09;16.20;99.90
8780;DHT22;62328;51.19929245;4.42130175;2023-05-07T03:47:36;16.20;99.90
8780;DHT22;62328;51.19929245;4.42130175;2023-05-07T03:50:04;16.20;99.90
8780;DHT22;62328;51.19929245;4.42130175;2023-05-07T03:52:31;16.20;99.90
8780;DHT22;62328;51.19929245;4.42130175;2023-05-07T03:54:58;16.20;99.90
8780;DHT22;62328;51.19929245;4.42130175;2023-05-07T03:57:26;16.20;99.90
8780;DHT22;62328;51.19929245;4.42130175;2023-05-07T03:59:53;16.20;99.90
8780;DHT22;62328;51.19929245;4.42130175;2023-05-07T04:02:20;16.20;99.90
8780;DHT22;62328;51.19929245;4.42130175;2023-05-07T04:04:48;16.20;99.90
8780;DHT22;62328;51.19929245;4.42130175;2023-05-07T04:07:15;16.20;99.90
8780;DHT22;62328;51.19929245;4.42130175;2023-05-07T04:09:42;16.20;99.90
8780;DHT22;62328;51.19929245;4.42130175;2023-05-07T04:12:09;16.20;99.90
8780;DHT22;62328;51.19929245;4.42130175;2023-05-07T04:14:37;16.20;99.90
8780;DHT22;62328;51.19929245;4.42130175;2023-05-07T04:17:04;16.20;99.90
8780;DHT22;62328;51.19929245;4.42130175;2023-05-07T04:19:33;16.20;99.90
8780;DHT22;62328;51.19929245;4.42130175;2023-05-07T04:22:00;16.20;99.90
8780;DHT22;62328;51.19929245;4.42130175;2023-05-07T04:24:27;16.20;99.90
8780;DHT22;62328;51.19929245;4.42130175;2023-05-07T04:26:54;16.10;99.90
8780;DHT22;62328;51.19929245;4.42130175;2023-05-07T04:29:21;16.10;99.90
8780;DHT22;62328;51.19929245;4.42130175;2023-05-07T04:31:49;16.20;99.90
8780;DHT22;62328;51.19929245;4.42130175;2023-05-07T04:34:16;16.20;99.90
8780;DHT22;62328;51.19929245;4.42130175;2023-05-07T04:36:43;16.20;99.90
8780;DHT22;62328;51.19929245;4.42130175;2023-05-07T04:39:10;16.20;99.90
8780;DHT22;62328;51.19929245;4.42130175;2023-05-07T04:41:37;16.20;99.90
8780;DHT22;62328;51.19929245;4.42130175;2023-05-07T04:44:04;16.20;99.90
8780;DHT22;62328;51.19929245;4.42130175;2023-05-07T04:46:32;16.20;99.90
8780;DHT22;62328;51.19929245;4.42130175;2023-05-07T04:49:00;16.30;99.90
8780;DHT22;62328;51.19929245;4.42130175;2023-05-07T04:51:27;16.30;99.90
8780;DHT22;62328;51.19929245;4.42130175;2023-05-07T04:53:54;16.30;99.90
8780;DHT22;62328;51.19929245;4.42130175;2023-05-07T04:56:21;16.30;99.90
8780;DHT22;62328;51.19929245;4.42130175;2023-05-07T04:58:48;16.30;99.90
8780;DHT22;62328;51.19929245;4.42130175;2023-05-07T05:01:15;16.40;99.90
8780;DHT22;62328;51.19929245;4.42130175;2023-05-07T05:03:42;16.40;99.90
8780;DHT22;62328;51.19929245;4.42130175;2023-05-07T05:06:10;16.40;99.90
8780;DHT22;62328;51.19929245;4.42130175;2023-05-07T05:08:37;16.40;99.90
8780;DHT22;62328;51.19929245;4.42130175;2023-05-07T05:11:04;16.40;99.90
8780;DHT22;62328;51.19929245;4.42130175;2023-05-07T05:13:31;16.40;99.90
8780;DHT22;62328;51.19929245;4.42130175;2023-05-07T05:15:58;16.40;99.90
8780;DHT22;62328;51.19929245;4.42130175;2023-05-07T05:18:25;16.50;99.90
8780;DHT22;62328;51.19929245;4.42130175;2023-05-07T05:20:52;16.50;99.90
8780;DHT22;62328;51.19929245;4.42130175;2023-05-07T05:23:20;16.50;99.90
8780;DHT22;62328;51.19929245;4.42130175;2023-05-07T05:25:47;16.50;99.90
8780;DHT22;62328;51.19929245;4.42130175;2023-05-07T05:28:14;16.50;99.90
8780;DHT22;62328;51.19929245;4.42130175;2023-05-07T05:30:41;16.50;99.90
8780;DHT22;62328;51.19929245;4.42130175;2023-05-07T05:33:08;16.50;99.90
8780;DHT22;62328;51.19929245;4.42130175;2023-05-07T05:35:35;16.50;99.90
8780;DHT22;62328;51.19929245;4.42130175;2023-05-07T05:38:02;16.50;99.90
8780;DHT22;62328;51.19929245;4.42130175;2023-05-07T05:40:31;16.60;99.90
8780;DHT22;62328;51.19929245;4.42130175;2023-05-07T05:42:58;16.50;99.90
8780;DHT22;62328;51.19929245;4.42130175;2023-05-07T05:45:26;16.60;99.90
8780;DHT22;62328;51.19929245;4.42130175;2023-05-07T05:47:53;16.60;99.90
8780;DHT22;62328;51.19929245;4.42130175;2023-05-07T05:50:23;16.60;99.90
8780;DHT22;62328;51.19929245;4.42130175;2023-05-07T05:52:50;16.60;99.90
8780;DHT22;62328;51.19929245;4.42130175;2023-05-07T05:55:17;16.60;99.90
8780;DHT22;62328;51.19929245;4.42130175;2023-05-07T05:57:46;16.70;99.90
8780;DHT22;62328;51.19929245;4.42130175;2023-05-07T06:00:13;16.70;99.90
8780;DHT22;62328;51.19929245;4.42130175;2023-05-07T06:02:41;16.70;99.90
8780;DHT22;62328;51.19929245;4.42130175;2023-05-07T06:05:09;16.70;99.90
8780;DHT22;62328;51.19929245;4.42130175;2023-05-07T06:07:36;16.70;99.90
8780;DHT22;62328;51.19929245;4.42130175;2023-05-07T06:10:03;16.70;99.90
8780;DHT22;62328;51.19929245;4.42130175;2023-05-07T06:12:32;16.80;99.90
8780;DHT22;62328;51.19929245;4.42130175;2023-05-07T06:15:00;16.90;99.90
8780;DHT22;62328;51.19929245;4.42130175;2023-05-07T06:17:27;16.80;99.90
8780;DHT22;62328;51.19929245;4.42130175;2023-05-07T06:19:54;16.90;99.90
8780;DHT22;62328;51.19929245;4.42130175;2023-05-07T06:22:21;16.90;99.90
8780;DHT22;62328;51.19929245;4.42130175;2023-05-07T06:24:48;16.90;99.90
8780;DHT22;62328;51.19929245;4.42130175;2023-05-07T06:27:15;17.00;99.90
8780;DHT22;62328;51.19929245;4.42130175;2023-05-07T06:29:42;17.10;99.90
8780;DHT22;62328;51.19929245;4.42130175;2023-05-07T06:32:11;17.10;99.90
8780;DHT22;62328;51.19929245;4.42130175;2023-05-07T06:34:39;17.20;99.90
8780;DHT22;62328;51.19929245;4.42130175;2023-05-07T06:37:08;17.20;99.90
8780;DHT22;62328;51.19929245;4.42130175;2023-05-07T06:39:35;17.20;99.90
8780;DHT22;62328;51.19929245;4.42130175;2023-05-07T06:42:03;17.20;99.90
8780;DHT22;62328;51.19929245;4.42130175;2023-05-07T06:44:30;17.20;99.90
8780;DHT22;62328;51.19929245;4.42130175;2023-05-07T06:46:57;17.30;99.90
8780;DHT22;62328;51.19929245;4.42130175;2023-05-07T06:49:25;17.40;99.90
8780;DHT22;62328;51.19929245;4.42130175;2023-05-07T06:51:53;17.40;99.90
8780;DHT22;62328;51.19929245;4.42130175;2023-05-07T06:54:20;17.40;99.90
8780;DHT22;62328;51.19929245;4.42130175;2023-05-07T06:56:47;17.50;99.90
8780;DHT22;62328;51.19929245;4.42130175;2023-05-07T06:59:14;17.50;99.90
8780;DHT22;62328;51.19929245;4.42130175;2023-05-07T07:01:41;17.60;99.90
8780;DHT22;62328;51.19929245;4.42130175;2023-05-07T07:04:08;17.60;99.90
8780;DHT22;62328;51.19929245;4.42130175;2023-05-07T07:06:37;17.60;99.90
8780;DHT22;62328;51.19929245;4.42130175;2023-05-07T07:09:04;17.60;99.90
8780;DHT22;62328;51.19929245;4.42130175;2023-05-07T07:11:31;17.70;99.90
8780;DHT22;62328;51.19929245;4.42130175;2023-05-07T07:13:58;17.50;99.90
8780;DHT22;62328;51.19929245;4.42130175;2023-05-07T07:16:25;17.50;99.90
8780;DHT22;62328;51.19929245;4.42130175;2023-05-07T07:18:52;17.50;99.90
8780;DHT22;62328;51.19929245;4.42130175;2023-05-07T07:21:19;17.50;99.90
8780;DHT22;62328;51.19929245;4.42130175;2023-05-07T07:23:48;17.60;99.90
8780;DHT22;62328;51.19929245;4.42130175;2023-05-07T07:26:15;17.70;99.90
8780;DHT22;62328;51.19929245;4.42130175;2023-05-07T07:28:42;17.80;99.90
8780;DHT22;62328;51.19929245;4.42130175;2023-05-07T07:31:10;17.90;99.90
8780;DHT22;62328;51.19929245;4.42130175;2023-05-07T07:33:37;18.00;99.90
8780;DHT22;62328;51.19929245;4.42130175;2023-05-07T07:36:05;18.10;99.90
8780;DHT22;62328;51.19929245;4.42130175;2023-05-07T07:38:33;18.20;99.90
8780;DHT22;62328;51.19929245;4.42130175;2023-05-07T07:41:02;18.20;99.90
8780;DHT22;62328;51.19929245;4.42130175;2023-05-07T07:43:29;18.30;99.90
8780;DHT22;62328;51.19929245;4.42130175;2023-05-07T07:45:56;18.30;99.90
8780;DHT22;62328;51.19929245;4.42130175;2023-05-07T07:48:23;18.40;99.90
8780;DHT22;62328;51.19929245;4.42130175;2023-05-07T07:50:50;18.40;99.90
8780;DHT22;62328;51.19929245;4.42130175;2023-05-07T07:53:18;18.40;99.90
8780;DHT22;62328;51.19929245;4.42130175;2023-05-07T07:55:45;18.40;99.90
8780;DHT22;62328;51.19929245;4.42130175;2023-05-07T07:58:13;18.50;99.90
8780;DHT22;62328;51.19929245;4.42130175;2023-05-07T08:00:40;18.50;99.90
8780;DHT22;62328;51.19929245;4.42130175;2023-05-07T08:03:09;18.60;99.90
8780;DHT22;62328;51.19929245;4.42130175;2023-05-07T08:05:36;18.60;99.90
8780;DHT22;62328;51.19929245;4.42130175;2023-05-07T08:08:04;18.70;99.90
8780;DHT22;62328;51.19929245;4.42130175;2023-05-07T08:10:31;18.80;99.90
8780;DHT22;62328;51.19929245;4.42130175;2023-05-07T08:13:03;18.80;99.90
8780;DHT22;62328;51.19929245;4.42130175;2023-05-07T08:15:33;18.80;99.90
8780;DHT22;62328;51.19929245;4.42130175;2023-05-07T08:18:01;18.80;99.90
8780;DHT22;62328;51.19929245;4.42130175;2023-05-07T08:20:28;18.80;99.90
8780;DHT22;62328;51.19929245;4.42130175;2023-05-07T08:22:55;18.80;99.90
8780;DHT22;62328;51.19929245;4.42130175;2023-05-07T08:25:22;18.80;99.90
8780;DHT22;62328;51.19929245;4.42130175;2023-05-07T08:27:50;18.80;99.90
8780;DHT22;62328;51.19929245;4.42130175;2023-05-07T08:30:17;18.80;99.90
8780;DHT22;62328;51.19929245;4.42130175;2023-05-07T08:32:45;18.90;99.90
8780;DHT22;62328;51.19929245;4.42130175;2023-05-07T08:35:13;18.90;99.90
8780;DHT22;62328;51.19929245;4.42130175;2023-05-07T08:37:40;19.00;99.90
8780;DHT22;62328;51.19929245;4.42130175;2023-05-07T08:40:08;19.10;99.90
8780;DHT22;62328;51.19929245;4.42130175;2023-05-07T08:42:36;19.00;99.90
8780;DHT22;62328;51.19929245;4.42130175;2023-05-07T08:45:04;19.00;99.90
8780;DHT22;62328;51.19929245;4.42130175;2023-05-07T08:47:42;19.00;99.90
8780;DHT22;62328;51.19929245;4.42130175;2023-05-07T08:50:12;19.00;99.90
8780;DHT22;62328;51.19929245;4.42130175;2023-05-07T08:52:40;19.00;99.90
8780;DHT22;62328;51.19929245;4.42130175;2023-05-07T08:55:08;19.10;99.90
8780;DHT22;62328;51.19929245;4.42130175;2023-05-07T08:57:35;19.10;99.90
8780;DHT22;62328;51.19929245;4.42130175;2023-05-07T09:00:03;19.20;99.90
8780;DHT22;62328;51.19929245;4.42130175;2023-05-07T09:02:30;19.30;99.90
8780;DHT22;62328;51.19929245;4.42130175;2023-05-07T09:04:57;19.20;99.90
8780;DHT22;62328;51.19929245;4.42130175;2023-05-07T09:07:25;19.10;99.90
8780;DHT22;62328;51.19929245;4.42130175;2023-05-07T09:09:52;19.20;99.90
8780;DHT22;62328;51.19929245;4.42130175;2023-05-07T09:12:21;19.20;99.90
8780;DHT22;62328;51.19929245;4.42130175;2023-05-07T09:14:48;19.30;99.90
8780;DHT22;62328;51.19929245;4.42130175;2023-05-07T09:17:15;19.30;99.90
8780;DHT22;62328;51.19929245;4.42130175;2023-05-07T09:19:44;19.20;99.90
8780;DHT22;62328;51.19929245;4.42130175;2023-05-07T09:22:11;19.10;99.90
8780;DHT22;62328;51.19929245;4.42130175;2023-05-07T09:24:40;19.10;99.90
8780;DHT22;62328;51.19929245;4.42130175;2023-05-07T09:27:07;19.20;99.90
8780;DHT22;62328;51.19929245;4.42130175;2023-05-07T09:29:38;19.20;99.90
8780;DHT22;62328;51.19929245;4.42130175;2023-05-07T09:32:06;19.20;99.90
8780;DHT22;62328;51.19929245;4.42130175;2023-05-07T09:34:34;19.20;99.90
8780;DHT22;62328;51.19929245;4.42130175;2023-05-07T09:37:02;19.20;99.90
8780;DHT22;62328;51.19929245;4.42130175;2023-05-07T09:39:40;19.20;99.90
8780;DHT22;62328;51.19929245;4.42130175;2023-05-07T09:42:07;19.20;99.90
8780;DHT22;62328;51.19929245;4.42130175;2023-05-07T09:44:34;19.10;99.90
8780;DHT22;62328;51.19929245;4.42130175;2023-05-07T09:47:05;19.20;99.90
8780;DHT22;62328;51.19929245;4.42130175;2023-05-07T09:49:35;19.00;99.90
8780;DHT22;62328;51.19929245;4.42130175;2023-05-07T09:52:03;18.80;99.90
8780;DHT22;62328;51.19929245;4.42130175;2023-05-07T09:54:32;18.80;99.90
8780;DHT22;62328;51.19929245;4.42130175;2023-05-07T09:57:02;18.70;99.90
8780;DHT22;62328;51.19929245;4.42130175;2023-05-07T09:59:31;18.70;99.90
8780;DHT22;62328;51.19929245;4.42130175;2023-05-07T10:02:00;18.70;99.90
8780;DHT22;62328;51.19929245;4.42130175;2023-05-07T10:04:28;18.80;99.90
8780;DHT22;62328;51.19929245;4.42130175;2023-05-07T10:06:55;18.60;99.90
8780;DHT22;62328;51.19929245;4.42130175;2023-05-07T10:09:23;18.50;99.90
8780;DHT22;62328;51.19929245;4.42130175;2023-05-07T10:11:51;18.50;99.90
8780;DHT22;62328;51.19929245;4.42130175;2023-05-07T10:14:21;18.40;99.90
8780;DHT22;62328;51.19929245;4.42130175;2023-05-07T10:16:48;18.40;99.90
8780;DHT22;62328;51.19929245;4.42130175;2023-05-07T10:19:16;18.30;99.90
8780;DHT22;62328;51.19929245;4.42130175;2023-05-07T10:21:50;18.10;99.90
8780;DHT22;62328;51.19929245;4.42130175;2023-05-07T10:24:24;18.20;99.90
8780;DHT22;62328;51.19929245;4.42130175;2023-05-07T10:26:53;18.30;99.90
8780;DHT22;62328;51.19929245;4.42130175;2023-05-07T10:29:34;18.40;99.90
8780;DHT22;62328;51.19929245;4.42130175;2023-05-07T10:32:18;18.50;99.90
8780;DHT22;62328;51.19929245;4.42130175;2023-05-07T10:34:49;18.40;99.90
8780;DHT22;62328;51.19929245;4.42130175;2023-05-07T10:37:18;18.40;99.90
8780;DHT22;62328;51.19929245;4.42130175;2023-05-07T10:39:45;18.30;99.90
8780;DHT22;62328;51.19929245;4.42130175;2023-05-07T10:42:13;18.20;99.90
8780;DHT22;62328;51.19929245;4.42130175;2023-05-07T10:44:42;18.20;99.90
8780;DHT22;62328;51.19929245;4.42130175;2023-05-07T10:47:12;18.30;99.90
8780;DHT22;62328;51.19929245;4.42130175;2023-05-07T10:50:22;18.30;99.90
8780;DHT22;62328;51.19929245;4.42130175;2023-05-07T10:53:24;18.20;99.90
8780;DHT22;62328;51.19929245;4.42130175;2023-05-07T10:56:26;18.30;99.90
8780;DHT22;62328;51.19929245;4.42130175;2023-05-07T10:58:53;18.30;99.90
8780;DHT22;62328;51.19929245;4.42130175;2023-05-07T11:01:52;18.40;99.90
8780;DHT22;62328;51.19929245;4.42130175;2023-05-07T11:04:20;18.30;99.90
8780;DHT22;62328;51.19929245;4.42130175;2023-05-07T11:07:26;18.30;99.90
8780;DHT22;62328;51.19929245;4.42130175;2023-05-07T11:10:11;18.30;99.90
8780;DHT22;62328;51.19929245;4.42130175;2023-05-07T11:12:54;18.30;99.90
8780;DHT22;62328;51.19929245;4.42130175;2023-05-07T11:15:35;18.30;99.90
8780;DHT22;62328;51.19929245;4.42130175;2023-05-07T11:18:04;18.30;99.90
8780;DHT22;62328;51.19929245;4.42130175;2023-05-07T11:20:58;18.30;99.90
8780;DHT22;62328;51.19929245;4.42130175;2023-05-07T11:26:46;18.30;99.90
8780;DHT22;62328;51.19929245;4.42130175;2023-05-07T11:29:15;18.10;99.90
8780;DHT22;62328;51.19929245;4.42130175;2023-05-07T11:31:42;18.20;99.90
8780;DHT22;62328;51.19929245;4.42130175;2023-05-07T11:34:11;18.10;99.90
8780;DHT22;62328;51.19929245;4.42130175;2023-05-07T11:36:42;18.10;99.90
8780;DHT22;62328;51.19929245;4.42130175;2023-05-07T11:39:26;18.20;99.90
8780;DHT22;62328;51.19929245;4.42130175;2023-05-07T11:41:54;18.20;99.90
8780;DHT22;62328;51.19929245;4.42130175;2023-05-07T11:44:21;18.30;99.90
8780;DHT22;62328;51.19929245;4.42130175;2023-05-07T11:46:48;18.30;99.90
8780;DHT22;62328;51.19929245;4.42130175;2023-05-07T11:49:17;18.40;99.90
8780;DHT22;62328;51.19929245;4.42130175;2023-05-07T11:51:44;18.40;99.90
8780;DHT22;62328;51.19929245;4.42130175;2023-05-07T11:54:15;18.50;99.90
8780;DHT22;62328;51.19929245;4.42130175;2023-05-07T11:56:44;18.50;99.90
8780;DHT22;62328;51.19929245;4.42130175;2023-05-07T11:59:17;18.50;99.90
8780;DHT22;62328;51.19929245;4.42130175;2023-05-07T12:01:46;18.50;99.90
8780;DHT22;62328;51.19929245;4.42130175;2023-05-07T12:04:13;18.50;99.90
8780;DHT22;62328;51.19929245;4.42130175;2023-05-07T12:06:42;18.50;99.90
8780;DHT22;62328;51.19929245;4.42130175;2023-05-07T12:09:09;18.60;99.90
8780;DHT22;62328;51.19929245;4.42130175;2023-05-07T12:11:37;18.50;99.90
8780;DHT22;62328;51.19929245;4.42130175;2023-05-07T12:14:06;18.50;99.90
8780;DHT22;62328;51.19929245;4.42130175;2023-05-07T12:16:33;18.50;99.90
8780;DHT22;62328;51.19929245;4.42130175;2023-05-07T12:19:00;18.70;99.90
8780;DHT22;62328;51.19929245;4.42130175;2023-05-07T12:21:27;18.80;99.90
8780;DHT22;62328;51.19929245;4.42130175;2023-05-07T12:23:56;18.90;99.90
8780;DHT22;62328;51.19929245;4.42130175;2023-05-07T12:26:23;18.80;99.90
8780;DHT22;62328;51.19929245;4.42130175;2023-05-07T12:28:51;18.80;99.90
8780;DHT22;62328;51.19929245;4.42130175;2023-05-07T12:31:18;18.90;99.90
8780;DHT22;62328;51.19929245;4.42130175;2023-05-07T12:33:46;18.90;99.90
8780;DHT22;62328;51.19929245;4.42130175;2023-05-07T12:36:13;18.80;99.90
8780;DHT22;62328;51.19929245;4.42130175;2023-05-07T12:38:41;18.80;99.90
8780;DHT22;62328;51.19929245;4.42130175;2023-05-07T12:41:10;18.80;99.90
8780;DHT22;62328;51.19929245;4.42130175;2023-05-07T12:43:38;18.80;99.90
8780;DHT22;62328;51.19929245;4.42130175;2023-05-07T12:46:06;19.00;99.90
8780;DHT22;62328;51.19929245;4.42130175;2023-05-07T12:48:35;19.00;99.90
8780;DHT22;62328;51.19929245;4.42130175;2023-05-07T12:51:03;19.20;99.90
8780;DHT22;62328;51.19929245;4.42130175;2023-05-07T12:53:30;19.20;99.90
8780;DHT22;62328;51.19929245;4.42130175;2023-05-07T12:55:58;19.20;99.90
8780;DHT22;62328;51.19929245;4.42130175;2023-05-07T12:58:28;19.20;99.90
8780;DHT22;62328;51.19929245;4.42130175;2023-05-07T13:00:57;19.30;99.90
8780;DHT22;62328;51.19929245;4.42130175;2023-05-07T13:03:26;19.50;99.90
8780;DHT22;62328;51.19929245;4.42130175;2023-05-07T13:05:55;19.50;99.90
8780;DHT22;62328;51.19929245;4.42130175;2023-05-07T13:08:30;19.50;99.90
8780;DHT22;62328;51.19929245;4.42130175;2023-05-07T13:10:59;19.50;99.90
8780;DHT22;62328;51.19929245;4.42130175;2023-05-07T13:13:30;19.60;99.90
8780;DHT22;62328;51.19929245;4.42130175;2023-05-07T13:15:57;19.70;99.90
8780;DHT22;62328;51.19929245;4.42130175;2023-05-07T13:18:25;19.70;99.90
8780;DHT22;62328;51.19929245;4.42130175;2023-05-07T13:20:52;19.60;99.90
8780;DHT22;62328;51.19929245;4.42130175;2023-05-07T13:23:19;19.60;99.90
8780;DHT22;62328;51.19929245;4.42130175;2023-05-07T13:25:50;19.70;99.90
8780;DHT22;62328;51.19929245;4.42130175;2023-05-07T13:28:18;19.80;99.90
8780;DHT22;62328;51.19929245;4.42130175;2023-05-07T13:30:49;19.90;99.90
8780;DHT22;62328;51.19929245;4.42130175;2023-05-07T13:33:17;19.90;99.90
8780;DHT22;62328;51.19929245;4.42130175;2023-05-07T13:35:44;20.00;99.90
8780;DHT22;62328;51.19929245;4.42130175;2023-05-07T13:38:11;20.10;99.90
8780;DHT22;62328;51.19929245;4.42130175;2023-05-07T13:40:38;20.20;99.90
8780;DHT22;62328;51.19929245;4.42130175;2023-05-07T13:43:05;20.20;99.90
8780;DHT22;62328;51.19929245;4.42130175;2023-05-07T13:45:33;20.30;99.90
8780;DHT22;62328;51.19929245;4.42130175;2023-05-07T13:48:01;20.30;99.90